sensor_id;sensor_type;location;lat;lon;timestamp;noise_LAeq;noise_LA_min;noise_LA_max;noise_LA01;noise_LA95
76217;Laerm;65010;50.190;18.930;2023-02-02T06:50:42;55.35;37.65;68.56;;
76217;Laerm;65010;50.190;18.930;2023-02-02T06:53:49;54.92;38.48;68.90;;
76217;Laerm;65010;50.190;18.930;2023-02-02T06:56:58;55.55;39.21;67.58;;
76217;Laerm;65010;50.190;18.930;2023-02-02T07:00:11;55.87;38.88;70.58;;
76217;Laerm;65010;50.190;18.930;2023-02-02T07:03:21;52.33;39.81;67.59;;
76217;Laerm;65010;50.190;18.930;2023-02-02T07:06:32;54.65;40.26;68.48;;
76217;Laerm;65010;50.190;18.930;2023-02-02T07:09:38;52.24;39.76;68.82;;
76217;Laerm;65010;50.190;18.930;2023-02-02T07:12:44;49.38;39.96;67.51;;
76217;Laerm;65010;50.190;18.930;2023-02-02T07:15:51;50.05;40.13;68.32;;
76217;Laerm;65010;50.190;18.930;2023-02-02T07:18:58;53.20;39.81;69.80;;
76217;Laerm;65010;50.190;18.930;2023-02-02T07:22:17;51.37;39.98;68.71;;
76217;Laerm;65010;50.190;18.930;2023-02-02T07:25:23;54.64;40.23;71.89;;
76217;Laerm;65010;50.190;18.930;2023-02-02T07:28:31;47.12;39.64;67.35;;
76217;Laerm;65010;50.190;18.930;2023-02-02T07:31:37;51.30;40.84;67.43;;
76217;Laerm;65010;50.190;18.930;2023-02-02T07:34:43;52.94;40.78;66.69;;
76217;Laerm;65010;50.190;18.930;2023-02-02T07:37:53;47.69;40.01;64.35;;
76217;Laerm;65010;50.190;18.930;2023-02-02T07:41:01;52.29;37.74;68.17;;
76217;Laerm;65010;50.190;18.930;2023-02-02T07:44:13;51.18;37.23;66.99;;
76217;Laerm;65010;50.190;18.930;2023-02-02T07:47:20;52.79;36.99;75.49;;
76217;Laerm;65010;50.190;18.930;2023-02-02T07:50:29;49.25;38.95;65.36;;
76217;Laerm;65010;50.190;18.930;2023-02-02T07:53:42;46.81;38.70;66.72;;
76217;Laerm;65010;50.190;18.930;2023-02-02T07:56:49;49.61;38.73;64.79;;
76217;Laerm;65010;50.190;18.930;2023-02-02T07:59:55;52.58;39.92;68.76;;
76217;Laerm;65010;50.190;18.930;2023-02-02T08:03:01;50.00;39.52;64.15;;
76217;Laerm;65010;50.190;18.930;2023-02-02T08:06:12;50.07;39.44;69.13;;
76217;Laerm;65010;50.190;18.930;2023-02-02T08:09:21;52.20;39.60;70.63;;
76217;Laerm;65010;50.190;18.930;2023-02-02T08:12:32;45.03;39.53;66.20;;
76217;Laerm;65010;50.190;18.930;2023-02-02T08:15:38;52.60;39.99;68.84;;
76217;Laerm;65010;50.190;18.930;2023-02-02T08:18:46;49.42;39.88;68.93;;
76217;Laerm;65010;50.190;18.930;2023-02-02T08:21:52;49.89;40.46;68.48;;
76217;Laerm;65010;50.190;18.930;2023-02-02T08:25:01;51.77;40.54;69.33;;
76217;Laerm;65010;50.190;18.930;2023-02-02T08:28:08;48.89;40.18;66.04;;
76217;Laerm;65010;50.190;18.930;2023-02-02T08:31:18;51.30;40.36;69.26;;
76217;Laerm;65010;50.190;18.930;2023-02-02T08:34:25;54.00;40.57;68.70;;
76217;Laerm;65010;50.190;18.930;2023-02-02T08:37:31;51.53;42.86;68.72;;
76217;Laerm;65010;50.190;18.930;2023-02-02T08:40:40;51.68;36.95;67.80;;
76217;Laerm;65010;50.190;18.930;2023-02-02T08:43:47;54.27;38.30;72.47;;
76217;Laerm;65010;50.190;18.930;2023-02-02T08:46:52;48.44;38.15;68.84;;
76217;Laerm;65010;50.190;18.930;2023-02-02T08:49:59;48.78;35.66;68.49;;
76217;Laerm;65010;50.190;18.930;2023-02-02T08:53:05;50.13;36.56;68.40;;
76217;Laerm;65010;50.190;18.930;2023-02-02T08:56:17;49.77;37.07;67.78;;
76217;Laerm;65010;50.190;18.930;2023-02-02T08:59:23;49.39;39.13;67.67;;
76217;Laerm;65010;50.190;18.930;2023-02-02T09:02:30;48.51;39.31;69.16;;
76217;Laerm;65010;50.190;18.930;2023-02-02T09:05:36;49.29;39.72;65.83;;
76217;Laerm;65010;50.190;18.930;2023-02-02T09:08:44;46.92;40.46;64.38;;
76217;Laerm;65010;50.190;18.930;2023-02-02T09:11:53;47.87;40.46;67.88;;
76217;Laerm;65010;50.190;18.930;2023-02-02T09:14:59;44.74;40.69;65.45;;
76217;Laerm;65010;50.190;18.930;2023-02-02T09:18:05;53.21;40.98;72.42;;
76217;Laerm;65010;50.190;18.930;2023-02-02T09:21:15;49.17;40.72;67.15;;
76217;Laerm;65010;50.190;18.930;2023-02-02T09:24:21;48.73;40.16;67.32;;
76217;Laerm;65010;50.190;18.930;2023-02-02T09:27:34;52.67;39.90;71.84;;
76217;Laerm;65010;50.190;18.930;2023-02-02T09:30:41;51.28;39.83;67.86;;
76217;Laerm;65010;50.190;18.930;2023-02-02T09:33:48;51.49;40.32;69.75;;
76217;Laerm;65010;50.190;18.930;2023-02-02T09:36:54;51.99;40.60;66.43;;
76217;Laerm;65010;50.190;18.930;2023-02-02T09:40:02;49.67;40.70;68.23;;
76217;Laerm;65010;50.190;18.930;2023-02-02T09:43:37;49.21;37.94;68.14;;
76217;Laerm;65010;50.190;18.930;2023-02-02T09:47:02;48.00;38.11;68.45;;
76217;Laerm;65010;50.190;18.930;2023-02-02T09:50:26;51.87;38.31;68.64;;
76217;Laerm;65010;50.190;18.930;2023-02-02T09:53:46;47.78;39.88;67.67;;
76217;Laerm;65010;50.190;18.930;2023-02-02T09:57:03;47.69;39.43;66.93;;
76217;Laerm;65010;50.190;18.930;2023-02-02T10:00:28;54.15;39.69;69.84;;
76217;Laerm;65010;50.190;18.930;2023-02-02T10:03:44;50.22;39.75;69.37;;
76217;Laerm;65010;50.190;18.930;2023-02-02T10:07:06;51.49;40.58;68.08;;
76217;Laerm;65010;50.190;18.930;2023-02-02T10:10:23;48.57;40.49;67.27;;
76217;Laerm;65010;50.190;18.930;2023-02-02T10:13:38;46.34;40.57;62.17;;
76217;Laerm;65010;50.190;18.930;2023-02-02T10:16:54;51.36;37.99;70.07;;
76217;Laerm;65010;50.190;18.930;2023-02-02T10:23:40;50.43;41.41;69.58;;
76217;Laerm;65010;50.190;18.930;2023-02-02T10:26:51;55.11;39.66;69.35;;
76217;Laerm;65010;50.190;18.930;2023-02-02T10:30:01;56.21;39.27;70.15;;
76217;Laerm;65010;50.190;18.930;2023-02-02T10:33:20;55.85;40.80;70.17;;
76217;Laerm;65010;50.190;18.930;2023-02-02T10:36:55;54.90;42.01;70.66;;
76217;Laerm;65010;50.190;18.930;2023-02-02T10:40:30;54.81;41.02;71.22;;
76217;Laerm;65010;50.190;18.930;2023-02-02T10:44:16;50.37;40.56;70.27;;
76217;Laerm;65010;50.190;18.930;2023-02-02T10:47:31;53.08;40.73;71.19;;
76217;Laerm;65010;50.190;18.930;2023-02-02T10:50:45;49.48;40.93;69.72;;
76217;Laerm;65010;50.190;18.930;2023-02-02T10:53:59;49.63;38.58;71.48;;
76217;Laerm;65010;50.190;18.930;2023-02-02T10:57:17;45.96;37.94;69.24;;
76217;Laerm;65010;50.190;18.930;2023-02-02T11:00:34;51.82;38.27;69.65;;
76217;Laerm;65010;50.190;18.930;2023-02-02T11:03:43;50.67;39.53;65.96;;
76217;Laerm;65010;50.190;18.930;2023-02-02T11:06:50;49.13;38.88;68.28;;
76217;Laerm;65010;50.190;18.930;2023-02-02T11:09:54;53.10;39.93;70.68;;
76217;Laerm;65010;50.190;18.930;2023-02-02T11:13:07;52.39;39.34;69.49;;
76217;Laerm;65010;50.190;18.930;2023-02-02T11:16:26;48.11;39.50;65.77;;
76217;Laerm;65010;50.190;18.930;2023-02-02T11:19:45;48.31;39.09;67.58;;
76217;Laerm;65010;50.190;18.930;2023-02-02T11:23:03;48.60;39.95;66.36;;
76217;Laerm;65010;50.190;18.930;2023-02-02T11:26:11;47.31;40.05;66.38;;
76217;Laerm;65010;50.190;18.930;2023-02-02T11:29:28;52.74;39.32;68.98;;
76217;Laerm;65010;50.190;18.930;2023-02-02T11:32:35;50.98;39.93;66.12;;
76217;Laerm;65010;50.190;18.930;2023-02-02T11:35:53;46.22;40.04;62.69;;
76217;Laerm;65010;50.190;18.930;2023-02-02T11:39:18;50.00;39.81;67.38;;
76217;Laerm;65010;50.190;18.930;2023-02-02T11:42:26;45.13;38.71;62.20;;
76217;Laerm;65010;50.190;18.930;2023-02-02T11:45:41;48.41;36.92;66.58;;
76217;Laerm;65010;50.190;18.930;2023-02-02T11:48:54;44.86;37.36;62.89;;
76217;Laerm;65010;50.190;18.930;2023-02-02T11:52:06;40.89;37.69;53.62;;
76217;Laerm;65010;50.190;18.930;2023-02-02T11:55:28;49.84;38.22;67.28;;
76217;Laerm;65010;50.190;18.930;2023-02-02T11:58:44;50.19;38.88;66.97;;
76217;Laerm;65010;50.190;18.930;2023-02-02T12:02:24;48.92;39.75;65.93;;
76217;Laerm;65010;50.190;18.930;2023-02-02T12:05:36;48.01;39.66;63.07;;
76217;Laerm;65010;50.190;18.930;2023-02-02T12:08:44;49.93;39.65;68.45;;
76217;Laerm;65010;50.190;18.930;2023-02-02T12:12:06;47.92;38.88;65.05;;
76217;Laerm;65010;50.190;18.930;2023-02-02T12:15:32;50.24;39.79;65.95;;
76217;Laerm;65010;50.190;18.930;2023-02-02T12:19:12;49.35;39.53;64.08;;
76217;Laerm;65010;50.190;18.930;2023-02-02T12:22:44;48.80;39.54;65.38;;
76217;Laerm;65010;50.190;18.930;2023-02-02T12:26:21;48.46;39.95;65.71;;
76217;Laerm;65010;50.190;18.930;2023-02-02T12:29:48;49.59;37.36;64.63;;
76217;Laerm;65010;50.190;18.930;2023-02-02T12:33:29;51.80;36.30;68.91;;
76217;Laerm;65010;50.190;18.930;2023-02-02T12:36:56;48.75;36.77;65.99;;
76217;Laerm;65010;50.190;18.930;2023-02-02T12:40:28;50.87;37.84;67.23;;
76217;Laerm;65010;50.190;18.930;2023-02-02T12:43:44;49.71;38.01;67.12;;
76217;Laerm;65010;50.190;18.930;2023-02-02T12:47:15;47.53;39.06;63.97;;
76217;Laerm;65010;50.190;18.930;2023-02-02T12:50:32;52.18;39.43;68.28;;
76217;Laerm;65010;50.190;18.930;2023-02-02T12:54:23;47.16;39.27;65.24;;
76217;Laerm;65010;50.190;18.930;2023-02-02T12:57:52;52.23;39.30;67.97;;
76217;Laerm;65010;50.190;18.930;2023-02-02T13:01:17;48.19;38.43;67.57;;
76217;Laerm;65010;50.190;18.930;2023-02-02T13:04:48;49.73;39.01;69.74;;
76217;Laerm;65010;50.190;18.930;2023-02-02T13:08:08;50.05;39.26;66.28;;
76217;Laerm;65010;50.190;18.930;2023-02-02T13:11:33;49.05;39.48;63.76;;
76217;Laerm;65010;50.190;18.930;2023-02-02T13:14:47;52.65;40.02;66.48;;
76217;Laerm;65010;50.190;18.930;2023-02-02T13:17:59;45.03;37.05;62.01;;
76217;Laerm;65010;50.190;18.930;2023-02-02T13:21:14;50.31;36.75;64.12;;
76217;Laerm;65010;50.190;18.930;2023-02-02T13:24:28;51.97;37.80;65.63;;
76217;Laerm;65010;50.190;18.930;2023-02-02T13:27:40;44.89;37.44;64.64;;
76217;Laerm;65010;50.190;18.930;2023-02-02T13:30:51;49.41;38.02;64.76;;
76217;Laerm;65010;50.190;18.930;2023-02-02T13:34:13;51.17;39.01;68.79;;
76217;Laerm;65010;50.190;18.930;2023-02-02T13:37:31;51.42;39.29;65.68;;
76217;Laerm;65010;50.190;18.930;2023-02-02T13:40:42;49.86;39.52;63.91;;
76217;Laerm;65010;50.190;18.930;2023-02-02T13:44:01;50.71;39.39;66.61;;
76217;Laerm;65010;50.190;18.930;2023-02-02T13:47:22;46.02;39.05;63.64;;
76217;Laerm;65010;50.190;18.930;2023-02-02T13:50:52;50.22;38.99;65.56;;
76217;Laerm;65010;50.190;18.930;2023-02-02T13:58:57;49.17;39.17;67.67;;
76217;Laerm;65010;50.190;18.930;2023-02-02T14:02:23;48.10;39.20;62.02;;
76217;Laerm;65010;50.190;18.930;2023-02-02T14:05:36;47.73;39.39;63.56;;
76217;Laerm;65010;50.190;18.930;2023-02-02T14:08:49;51.29;38.11;70.93;;
76217;Laerm;65010;50.190;18.930;2023-02-02T14:12:01;51.47;39.38;64.94;;
76217;Laerm;65010;50.190;18.930;2023-02-02T14:15:13;49.33;38.98;65.55;;
76217;Laerm;65010;50.190;18.930;2023-02-02T14:18:55;65.88;38.84;88.64;;
76217;Laerm;65010;50.190;18.930;2023-02-02T14:22:19;58.88;38.48;84.08;;
76217;Laerm;65010;50.190;18.930;2023-02-02T14:25:47;47.24;38.61;65.74;;
76217;Laerm;65010;50.190;18.930;2023-02-02T14:28:58;51.99;38.40;67.79;;
76217;Laerm;65010;50.190;18.930;2023-02-02T14:32:32;45.97;37.82;72.53;;
76217;Laerm;65010;50.190;18.930;2023-02-02T14:35:59;49.33;37.94;63.47;;
76217;Laerm;65010;50.190;18.930;2023-02-02T14:39:20;49.53;37.55;63.35;;
76217;Laerm;65010;50.190;18.930;2023-02-02T14:42:55;47.68;38.69;63.61;;
76217;Laerm;65010;50.190;18.930;2023-02-02T14:46:40;50.38;38.74;67.41;;
76217;Laerm;65010;50.190;18.930;2023-02-02T14:49:57;50.73;38.94;65.93;;
76217;Laerm;65010;50.190;18.930;2023-02-02T14:53:14;50.58;36.20;65.10;;
76217;Laerm;65010;50.190;18.930;2023-02-02T14:56:41;52.00;36.34;69.05;;
76217;Laerm;65010;50.190;18.930;2023-02-02T14:59:54;43.30;35.89;61.51;;
76217;Laerm;65010;50.190;18.930;2023-02-02T15:03:36;49.45;37.27;64.29;;
76217;Laerm;65010;50.190;18.930;2023-02-02T15:06:52;43.95;37.57;59.39;;
76217;Laerm;65010;50.190;18.930;2023-02-02T15:09:59;48.21;38.64;64.66;;
76217;Laerm;65010;50.190;18.930;2023-02-02T15:13:13;47.69;39.02;62.20;;
76217;Laerm;65010;50.190;18.930;2023-02-02T15:16:29;49.83;39.37;64.94;;
76217;Laerm;65010;50.190;18.930;2023-02-02T15:19:43;49.04;39.31;64.15;;
76217;Laerm;65010;50.190;18.930;2023-02-02T15:23:04;51.65;39.17;66.08;;
76217;Laerm;65010;50.190;18.930;2023-02-02T15:26:19;49.54;39.20;65.91;;
76217;Laerm;65010;50.190;18.930;2023-02-02T15:29:38;52.04;39.55;65.75;;
76217;Laerm;65010;50.190;18.930;2023-02-02T15:32:49;49.20;38.60;68.46;;
76217;Laerm;65010;50.190;18.930;2023-02-02T15:36:02;49.36;38.58;64.98;;
76217;Laerm;65010;50.190;18.930;2023-02-02T15:39:27;45.89;38.71;60.87;;
76217;Laerm;65010;50.190;18.930;2023-02-02T15:42:41;51.36;38.87;65.95;;
76217;Laerm;65010;50.190;18.930;2023-02-02T15:46:05;49.58;37.85;66.42;;
76217;Laerm;65010;50.190;18.930;2023-02-02T15:49:30;48.31;38.70;63.12;;
76217;Laerm;65010;50.190;18.930;2023-02-02T15:52:46;49.43;38.87;64.48;;
76217;Laerm;65010;50.190;18.930;2023-02-02T15:55:57;48.19;38.95;65.38;;
76217;Laerm;65010;50.190;18.930;2023-02-02T15:59:20;47.81;38.71;63.60;;
76217;Laerm;65010;50.190;18.930;2023-02-02T16:02:35;49.53;39.01;61.38;;
76217;Laerm;65010;50.190;18.930;2023-02-02T16:05:50;47.39;38.34;62.14;;
76217;Laerm;65010;50.190;18.930;2023-02-02T16:09:02;50.22;39.28;64.07;;
76217;Laerm;65010;50.190;18.930;2023-02-02T16:12:18;49.33;39.03;61.85;;
76217;Laerm;65010;50.190;18.930;2023-02-02T16:15:29;47.48;39.27;63.99;;
76217;Laerm;65010;50.190;18.930;2023-02-02T16:18:35;50.58;38.91;67.57;;
76217;Laerm;65010;50.190;18.930;2023-02-02T16:21:51;49.22;38.91;63.79;;
76217;Laerm;65010;50.190;18.930;2023-02-02T16:25:05;51.64;39.43;66.30;;
76217;Laerm;65010;50.190;18.930;2023-02-02T16:28:20;46.79;38.93;61.89;;
76217;Laerm;65010;50.190;18.930;2023-02-02T16:31:27;46.43;38.55;61.84;;
76217;Laerm;65010;50.190;18.930;2023-02-02T16:34:45;49.98;38.56;63.21;;
76217;Laerm;65010;50.190;18.930;2023-02-02T16:37:51;50.42;38.92;72.95;;
76217;Laerm;65010;50.190;18.930;2023-02-02T16:41:04;49.54;38.85;64.48;;
76217;Laerm;65010;50.190;18.930;2023-02-02T16:44:37;50.24;38.60;66.49;;
76217;Laerm;65010;50.190;18.930;2023-02-02T16:47:45;48.87;39.03;62.88;;
76217;Laerm;65010;50.190;18.930;2023-02-02T16:51:06;49.79;38.43;63.92;;
76217;Laerm;65010;50.190;18.930;2023-02-02T16:54:19;50.11;39.20;63.55;;
76217;Laerm;65010;50.190;18.930;2023-02-02T16:57:29;49.79;38.80;63.05;;
76217;Laerm;65010;50.190;18.930;2023-02-02T17:00:58;48.08;39.10;62.41;;
76217;Laerm;65010;50.190;18.930;2023-02-02T17:04:23;48.01;38.69;62.44;;
76217;Laerm;65010;50.190;18.930;2023-02-02T17:07:36;47.93;38.94;64.60;;
76217;Laerm;65010;50.190;18.930;2023-02-02T17:10:44;46.42;39.00;64.47;;
76217;Laerm;65010;50.190;18.930;2023-02-02T17:13:51;47.41;39.11;61.18;;
76217;Laerm;65010;50.190;18.930;2023-02-02T17:17:04;48.52;38.46;66.77;;
76217;Laerm;65010;50.190;18.930;2023-02-02T17:20:12;49.05;38.46;71.10;;
76217;Laerm;65010;50.190;18.930;2023-02-02T17:23:19;44.84;38.67;63.98;;
76217;Laerm;65010;50.190;18.930;2023-02-02T17:26:26;40.49;38.03;43.81;;
76217;Laerm;65010;50.190;18.930;2023-02-02T17:29:32;44.06;37.90;59.41;;
76217;Laerm;65010;50.190;18.930;2023-02-02T17:32:42;50.05;39.11;62.39;;
76217;Laerm;65010;50.190;18.930;2023-02-02T17:35:47;46.77;39.12;61.97;;
76217;Laerm;65010;50.190;18.930;2023-02-02T17:38:58;48.83;39.54;64.44;;
76217;Laerm;65010;50.190;18.930;2023-02-02T17:42:27;44.77;38.19;59.43;;
76217;Laerm;65010;50.190;18.930;2023-02-02T17:45:36;47.64;39.05;63.18;;
76217;Laerm;65010;50.190;18.930;2023-02-02T17:48:45;49.69;38.74;66.69;;
76217;Laerm;65010;50.190;18.930;2023-02-02T17:51:53;50.87;39.08;64.81;;
76217;Laerm;65010;50.190;18.930;2023-02-02T17:54:59;48.19;39.07;61.57;;
76217;Laerm;65010;50.190;18.930;2023-02-02T17:58:07;48.72;39.42;64.24;;
76217;Laerm;65010;50.190;18.930;2023-02-02T18:01:14;50.10;39.71;65.62;;
76217;Laerm;65010;50.190;18.930;2023-02-02T18:04:24;49.00;38.89;64.81;;
76217;Laerm;65010;50.190;18.930;2023-02-02T18:07:31;51.71;39.46;64.51;;
76217;Laerm;65010;50.190;18.930;2023-02-02T18:10:42;48.19;39.38;66.59;;
76217;Laerm;65010;50.190;18.930;2023-02-02T18:13:48;51.15;39.14;75.56;;
76217;Laerm;65010;50.190;18.930;2023-02-02T20:15:43;45.80;39.37;60.57;;
76217;Laerm;65010;50.190;18.930;2023-02-02T20:18:54;48.30;39.49;74.87;;
76217;Laerm;65010;50.190;18.930;2023-02-02T20:22:19;45.18;39.70;61.09;;
76217;Laerm;65010;50.190;18.930;2023-02-02T20:25:26;41.30;39.12;46.82;;
76217;Laerm;65010;50.190;18.930;2023-02-02T20:28:40;43.22;39.51;58.91;;
76217;Laerm;65010;50.190;18.930;2023-02-02T20:31:56;47.30;38.86;66.10;;
76217;Laerm;65010;50.190;18.930;2023-02-02T20:35:28;47.55;39.42;71.39;;
76217;Laerm;65010;50.190;18.930;2023-02-02T20:38:38;44.42;38.94;58.95;;
76217;Laerm;65010;50.190;18.930;2023-02-02T20:41:44;45.90;39.13;63.83;;
76217;Laerm;65010;50.190;18.930;2023-02-02T20:44:52;41.49;39.58;48.31;;
76217;Laerm;65010;50.190;18.930;2023-02-02T20:48:02;42.46;39.39;62.82;;
76217;Laerm;65010;50.190;18.930;2023-02-02T20:51:12;46.52;39.57;66.09;;
76217;Laerm;65010;50.190;18.930;2023-02-02T20:54:18;45.33;38.87;60.44;;
76217;Laerm;65010;50.190;18.930;2023-02-02T20:57:25;41.06;38.93;47.97;;
76217;Laerm;65010;50.190;18.930;2023-02-02T21:00:31;40.97;38.98;44.22;;
76217;Laerm;65010;50.190;18.930;2023-02-02T21:03:41;44.10;38.94;61.18;;
76217;Laerm;65010;50.190;18.930;2023-02-02T21:06:48;41.13;38.96;44.17;;
76217;Laerm;65010;50.190;18.930;2023-02-02T21:09:55;42.27;39.36;60.24;;
76217;Laerm;65010;50.190;18.930;2023-02-02T21:13:21;42.77;39.14;58.99;;
76217;Laerm;65010;50.190;18.930;2023-02-02T21:16:28;43.07;39.06;60.25;;
76217;Laerm;65010;50.190;18.930;2023-02-02T21:19:36;41.50;39.21;49.21;;
76217;Laerm;65010;50.190;18.930;2023-02-02T21:22:43;41.56;38.97;60.28;;
76217;Laerm;65010;50.190;18.930;2023-02-02T21:25:49;41.32;39.08;44.52;;
76217;Laerm;65010;50.190;18.930;2023-02-02T21:28:56;41.27;39.08;45.74;;
76217;Laerm;65010;50.190;18.930;2023-02-02T21:32:03;41.45;38.47;53.29;;
76217;Laerm;65010;50.190;18.930;2023-02-02T21:35:13;41.19;39.17;44.01;;
76217;Laerm;65010;50.190;18.930;2023-02-02T21:38:19;44.06;38.58;62.07;;
76217;Laerm;65010;50.190;18.930;2023-02-02T21:41:31;39.60;37.30;42.84;;
76217;Laerm;65010;50.190;18.930;2023-02-02T21:44:42;41.60;38.10;44.54;;
76217;Laerm;65010;50.190;18.930;2023-02-02T21:47:53;47.24;39.17;67.95;;
76217;Laerm;65010;50.190;18.930;2023-02-02T21:51:21;41.57;39.64;43.76;;
76217;Laerm;65010;50.190;18.930;2023-02-02T21:54:36;43.77;38.21;64.09;;
76217;Laerm;65010;50.190;18.930;2023-02-02T21:57:42;39.28;37.27;42.04;;
76217;Laerm;65010;50.190;18.930;2023-02-02T22:00:49;43.43;38.85;45.73;;
76217;Laerm;65010;50.190;18.930;2023-02-02T22:03:55;44.39;40.41;61.19;;
76217;Laerm;65010;50.190;18.930;2023-02-02T22:07:14;42.39;40.07;46.64;;
76217;Laerm;65010;50.190;18.930;2023-02-02T22:10:34;41.84;39.50;44.09;;
76217;Laerm;65010;50.190;18.930;2023-02-02T22:13:41;41.18;39.13;43.38;;
76217;Laerm;65010;50.190;18.930;2023-02-02T22:16:51;41.26;38.83;45.17;;
76217;Laerm;65010;50.190;18.930;2023-02-02T22:20:23;44.51;38.61;66.35;;
76217;Laerm;65010;50.190;18.930;2023-02-02T22:23:38;45.84;38.44;66.18;;
76217;Laerm;65010;50.190;18.930;2023-02-02T22:26:47;41.19;39.23;43.41;;
76217;Laerm;65010;50.190;18.930;2023-02-02T22:29:59;41.23;39.06;49.50;;
76217;Laerm;65010;50.190;18.930;2023-02-02T22:33:10;40.57;36.14;59.79;;
76217;Laerm;65010;50.190;18.930;2023-02-02T22:36:16;39.30;36.89;53.46;;
76217;Laerm;65010;50.190;18.930;2023-02-02T22:39:26;38.55;36.43;45.29;;
76217;Laerm;65010;50.190;18.930;2023-02-02T22:42:31;42.21;37.90;44.81;;
76217;Laerm;65010;50.190;18.930;2023-02-02T22:45:39;40.75;38.41;44.50;;
76217;Laerm;65010;50.190;18.930;2023-02-02T22:48:44;40.76;39.01;44.48;;
76217;Laerm;65010;50.190;18.930;2023-02-02T22:51:51;40.85;38.86;45.44;;
76217;Laerm;65010;50.190;18.930;2023-02-02T22:55:00;40.65;37.77;42.63;;
76217;Laerm;65010;50.190;18.930;2023-02-02T22:58:06;40.08;37.82;42.04;;
76217;Laerm;65010;50.190;18.930;2023-02-02T23:01:12;40.20;37.94;42.62;;
76217;Laerm;65010;50.190;18.930;2023-02-02T23:04:19;41.24;38.77;57.21;;
76217;Laerm;65010;50.190;18.930;2023-02-02T23:07:25;40.75;38.77;42.83;;
76217;Laerm;65010;50.190;18.930;2023-02-02T23:10:34;39.31;36.73;42.03;;
76217;Laerm;65010;50.190;18.930;2023-02-02T23:13:40;40.17;37.80;42.97;;
76217;Laerm;65010;50.190;18.930;2023-02-02T23:16:47;41.08;38.78;43.16;;
76217;Laerm;65010;50.190;18.930;2023-02-02T23:19:53;40.79;38.93;42.80;;
76217;Laerm;65010;50.190;18.930;2023-02-02T23:23:00;40.80;38.84;42.90;;
76217;Laerm;65010;50.190;18.930;2023-02-02T23:26:08;40.75;38.90;42.56;;
76217;Laerm;65010;50.190;18.930;2023-02-02T23:29:15;40.81;38.98;43.28;;
76217;Laerm;65010;50.190;18.930;2023-02-02T23:32:21;40.79;38.86;42.68;;
76217;Laerm;65010;50.190;18.930;2023-02-02T23:35:28;40.79;38.47;43.10;;
76217;Laerm;65010;50.190;18.930;2023-02-02T23:38:34;40.77;38.83;42.92;;
76217;Laerm;65010;50.190;18.930;2023-02-02T23:41:44;40.79;38.67;42.65;;
76217;Laerm;65010;50.190;18.930;2023-02-02T23:44:51;40.75;38.10;42.58;;
76217;Laerm;65010;50.190;18.930;2023-02-02T23:47:58;40.81;38.65;42.67;;
76217;Laerm;65010;50.190;18.930;2023-02-02T23:51:04;37.85;35.19;43.06;;
76217;Laerm;65010;50.190;18.930;2023-02-02T23:54:13;35.04;33.67;41.82;;
76217;Laerm;65010;50.190;18.930;2023-02-02T23:57:21;35.86;33.94;51.23;;
